Time;durP1;ratioP1;P1;durP2;ratioP2;P2;SDS_P1;SDS_P2;PMS_P1;PMS_P2;Temp;Humidity;BMP_temperature;BMP_pressure;BME280_temperature;BME280_humidity;BME280_pressure;Samples;Min_cycle;Max_cycle;Signal;HPM_P1;HPM_P2
2023/11/13 00:02:06;;;;;;;19.77;9.95;;;;;;;1.46;60.04;100822.16;5002317;28;20057;-77
2023/11/13 00:04:32;;;;;;;23.20;11.82;;;;;;;1.47;60.26;100817.00;5001707;28;20064;-76
2023/11/13 00:06:57;;;;;;;24.67;11.13;;;;;;;1.44;60.55;100809.31;4989950;28;20060;-74
2023/11/13 00:09:24;;;;;;;19.35;9.73;;;;;;;1.50;60.32;100809.25;5005492;28;20491;-73
2023/11/13 00:11:53;;;;;;;19.83;9.70;;;;;;;1.54;60.17;100819.56;5001182;28;20033;-75
2023/11/13 00:14:18;;;;;;;24.85;11.13;;;;;;;1.49;60.40;100817.88;5004341;28;20306;-76
2023/11/13 00:16:44;;;;;;;21.23;10.70;;;;;;;1.51;60.18;100816.16;5005382;28;21266;-75
2023/11/13 00:19:09;;;;;;;26.02;12.57;;;;;;;1.48;60.26;100823.91;5003048;28;20136;-75
2023/11/13 00:21:35;;;;;;;22.70;11.27;;;;;;;1.46;59.87;100830.75;5009465;28;20108;-75
2023/11/13 00:24:01;;;;;;;18.10;10.25;;;;;;;1.43;59.80;100824.75;5000123;28;20047;-76
2023/11/13 00:26:27;;;;;;;17.77;9.65;;;;;;;1.40;59.97;100820.47;5000522;28;20034;-73
2023/11/13 00:28:53;;;;;;;26.73;11.80;;;;;;;1.39;59.54;100818.72;5009875;28;20037;-77
2023/11/13 00:31:19;;;;;;;15.95;9.98;;;;;;;1.30;59.78;100823.88;5025167;28;20048;-77
2023/11/13 00:33:48;;;;;;;18.00;10.48;;;;;;;1.29;60.39;100825.63;4975189;28;20228;-77
2023/11/13 00:36:17;;;;;;;20.58;10.10;;;;;;;1.32;60.25;100824.75;5007153;28;20045;-76
2023/11/13 00:38:42;;;;;;;20.63;11.43;;;;;;;1.28;60.58;100823.03;4988572;28;20564;-75
2023/11/13 00:41:13;;;;;;;28.85;11.60;;;;;;;1.17;61.76;100824.78;4990115;28;20109;-76
2023/11/13 00:43:40;;;;;;;13.73;8.60;;;;;;;1.42;60.53;100820.47;5002825;28;20512;-77
2023/11/13 00:46:08;;;;;;;16.40;9.52;;;;;;;1.41;60.28;100809.28;4990646;28;20055;-75
2023/11/13 00:48:35;;;;;;;17.98;9.88;;;;;;;1.37;60.48;100814.44;4987000;28;20033;-71
2023/11/13 00:51:03;;;;;;;21.17;11.10;;;;;;;1.46;60.43;100809.28;4996849;28;20033;-74
2023/11/13 00:53:35;;;;;;;21.95;10.25;;;;;;;1.48;60.29;100817.88;5003960;28;20601;-72
2023/11/13 00:56:01;;;;;;;23.35;10.77;;;;;;;1.49;60.38;100807.56;4997849;28;20038;-73
2023/11/13 00:58:27;;;;;;;19.50;10.55;;;;;;;1.54;60.16;100811.84;5000129;28;20042;-74
2023/11/13 01:00:52;;;;;;;21.33;11.13;;;;;;;1.54;60.23;100806.69;4997275;28;20036;-72
2023/11/13 01:03:18;;;;;;;15.45;9.80;;;;;;;1.60;60.17;100796.38;4998831;28;20050;-72
2023/11/13 01:05:43;;;;;;;23.50;10.65;;;;;;;1.61;60.40;100801.50;5013734;28;20037;-74
2023/11/13 01:08:09;;;;;;;20.90;10.35;;;;;;;1.62;60.16;100804.97;5006099;28;20057;-76
2023/11/13 01:10:34;;;;;;;20.80;10.90;;;;;;;1.63;60.39;100804.94;4992164;28;20041;-74
2023/11/13 01:13:00;;;;;;;19.20;11.20;;;;;;;1.66;60.23;100804.94;4996443;28;20046;-74
2023/11/13 01:15:25;;;;;;;19.23;9.35;;;;;;;1.70;60.03;100811.75;5001572;28;20037;-71
2023/11/13 01:17:50;;;;;;;22.63;12.07;;;;;;;1.68;60.29;100808.34;4979247;28;20809;-71
2023/11/13 01:20:18;;;;;;;17.33;9.75;;;;;;;1.75;60.25;100813.47;5000997;28;20309;-71
2023/11/13 01:22:43;;;;;;;22.40;10.95;;;;;;;1.71;59.85;100812.66;5014162;28;20034;-71
2023/11/13 01:25:09;;;;;;;22.67;11.88;;;;;;;1.56;60.74;100807.56;5000620;28;20087;-71
2023/11/13 01:27:34;;;;;;;22.92;11.85;;;;;;;1.51;61.00;100794.69;4999671;28;20041;-71
2023/11/13 01:30:00;;;;;;;22.67;11.18;;;;;;;1.65;60.54;100792.06;5006476;28;20048;-71
2023/11/13 01:32:26;;;;;;;24.38;10.90;;;;;;;1.62;60.38;100795.50;5000195;28;20033;-70
2023/11/13 01:34:51;;;;;;;17.55;9.63;;;;;;;1.66;60.45;100796.31;4996309;28;20060;-70
2023/11/13 01:37:18;;;;;;;26.10;10.82;;;;;;;1.67;60.54;100785.19;5002120;28;20164;-69
2023/11/13 01:39:44;;;;;;;24.42;10.20;;;;;;;1.69;60.36;100799.75;4991595;28;20053;-70
2023/11/13 01:42:12;;;;;;;21.00;11.13;;;;;;;1.65;60.73;100784.31;5007279;28;20044;-71
2023/11/13 01:44:39;;;;;;;19.90;11.88;;;;;;;1.65;60.62;100782.59;4998220;28;20092;-69
2023/11/13 01:47:05;;;;;;;22.55;10.27;;;;;;;1.74;60.98;100773.97;5004978;28;20576;-71
2023/11/13 01:49:31;;;;;;;19.88;10.07;;;;;;;1.76;60.64;100769.66;5007983;28;20073;-70
2023/11/13 01:52:01;;;;;;;23.13;10.98;;;;;;;1.71;61.01;100766.25;4994260;28;20040;-70
2023/11/13 01:54:27;;;;;;;17.63;10.18;;;;;;;1.77;60.66;100773.94;4998682;28;20045;-71
2023/11/13 01:56:55;;;;;;;21.33;10.82;;;;;;;1.85;60.41;100768.75;4996079;28;20401;-70
2023/11/13 01:59:23;;;;;;;24.23;10.57;;;;;;;1.88;60.39;100764.44;5004671;28;20500;-70
2023/11/13 02:01:49;;;;;;;19.55;11.05;;;;;;;1.84;60.35;100757.59;5004635;28;20160;-75
2023/11/13 02:04:15;;;;;;;21.20;9.27;;;;;;;1.80;60.30;100755.91;4991140;28;20034;-74
2023/11/13 02:06:41;;;;;;;17.95;9.45;;;;;;;1.76;60.38;100754.19;5002104;28;20056;-74
2023/11/13 02:09:10;;;;;;;19.83;10.15;;;;;;;1.73;60.16;100749.94;4981516;28;20495;-75
2023/11/13 02:11:37;;;;;;;20.20;10.57;;;;;;;1.71;60.58;100743.91;5005696;28;20060;-75
2023/11/13 02:14:05;;;;;;;19.10;10.35;;;;;;;1.67;60.32;100754.25;4987371;28;20309;-73
2023/11/13 02:16:31;;;;;;;18.75;10.43;;;;;;;1.65;60.56;100755.97;4992364;28;20649;-75
2023/11/13 02:18:57;;;;;;;16.33;9.57;;;;;;;1.68;60.50;100756.81;4997624;28;20081;-74
2023/11/13 02:21:23;;;;;;;18.88;10.30;;;;;;;1.59;60.61;100761.16;5002227;28;20034;-74
2023/11/13 02:23:51;;;;;;;20.83;11.65;;;;;;;1.69;60.36;100762.84;5001961;28;20056;-73
2023/11/13 02:26:18;;;;;;;22.20;10.52;;;;;;;1.75;60.19;100762.78;5007543;28;20041;-74
2023/11/13 02:28:44;;;;;;;22.58;10.32;;;;;;;1.71;60.23;100746.50;5000051;28;20054;-76
2023/11/13 02:31:10;;;;;;;20.27;11.50;;;;;;;1.73;60.29;100738.78;4990389;28;20033;-68
2023/11/13 02:33:35;;;;;;;21.60;10.60;;;;;;;1.72;60.23;100731.88;5001292;28;20046;-71
2023/11/13 02:36:01;;;;;;;20.70;10.93;;;;;;;1.80;60.35;100731.88;4997290;28;20061;-71
2023/11/13 02:38:27;;;;;;;26.23;12.30;;;;;;;1.78;60.20;100739.59;5008791;28;20045;-70
2023/11/13 02:40:52;;;;;;;22.15;10.30;;;;;;;1.76;60.71;100733.59;4984225;28;20092;-71
2023/11/13 02:43:18;;;;;;;23.38;10.05;;;;;;;1.81;60.82;100731.84;5008836;28;20042;-70
2023/11/13 02:45:43;;;;;;;19.10;11.13;;;;;;;1.87;60.41;100729.22;5001353;28;20041;-70
2023/11/13 02:48:09;;;;;;;22.00;11.00;;;;;;;1.82;60.78;100730.97;4999691;28;20053;-70
2023/11/13 02:50:35;;;;;;;23.60;10.98;;;;;;;1.88;60.64;100736.06;5002906;28;20064;-70
2023/11/13 02:53:00;;;;;;;21.00;9.85;;;;;;;1.90;60.33;100744.66;4999184;28;20034;-71
2023/11/13 02:55:26;;;;;;;26.60;11.68;;;;;;;1.96;60.34;100745.50;5001162;28;20030;-71
2023/11/13 02:57:52;;;;;;;20.63;9.65;;;;;;;1.94;60.19;100748.94;4998628;28;20026;-69
2023/11/13 03:00:19;;;;;;;22.20;11.07;;;;;;;1.97;60.60;100744.63;5009585;28;20026;-67
2023/11/13 03:02:46;;;;;;;18.70;10.52;;;;;;;2.02;60.46;100745.44;5000731;28;20034;-69
2023/11/13 03:05:14;;;;;;;19.92;10.93;;;;;;;1.96;60.46;100750.66;5001043;28;20555;-65
2023/11/13 03:07:40;;;;;;;16.58;9.15;;;;;;;1.97;60.67;100740.31;5001996;28;20065;-68
2023/11/13 03:10:05;;;;;;;24.73;12.27;;;;;;;2.02;60.35;100750.59;4998583;28;21016;-67
2023/11/13 03:12:31;;;;;;;23.55;11.73;;;;;;;1.86;60.79;100755.88;5003447;28;20501;-68
2023/11/13 03:14:57;;;;;;;21.70;11.65;;;;;;;2.01;60.98;100757.47;4997167;28;20192;-65
2023/11/13 03:17:22;;;;;;;21.05;11.38;;;;;;;2.06;60.69;100753.16;5003666;28;20045;-67
2023/11/13 03:19:49;;;;;;;20.30;11.07;;;;;;;2.12;60.65;100747.09;5002178;28;20045;-68
2023/11/13 03:22:14;;;;;;;26.08;11.38;;;;;;;2.16;60.47;100750.53;4999238;28;20045;-70
2023/11/13 03:24:39;;;;;;;25.70;11.63;;;;;;;2.09;60.84;100752.31;5000747;28;20388;-68
2023/11/13 03:27:06;;;;;;;20.42;10.45;;;;;;;2.13;60.40;100752.25;4997830;28;20589;-69
2023/11/13 03:29:32;;;;;;;22.60;11.57;;;;;;;2.16;60.33;100751.38;5016727;28;20037;-68
2023/11/13 03:31:58;;;;;;;18.67;10.80;;;;;;;2.15;60.32;100757.38;4997628;28;20029;-66
2023/11/13 03:34:24;;;;;;;21.55;10.57;;;;;;;2.11;60.40;100755.72;5001824;28;20053;-66
2023/11/13 03:36:49;;;;;;;24.67;10.55;;;;;;;1.93;60.29;100760.13;4999725;28;20033;-67
2023/11/13 03:39:16;;;;;;;18.70;10.98;;;;;;;2.05;60.42;100761.75;4998678;28;20357;-66
2023/11/13 03:41:42;;;;;;;21.15;10.93;;;;;;;1.91;60.52;100758.44;4989150;28;20511;-67
2023/11/13 03:44:07;;;;;;;18.60;11.32;;;;;;;1.93;60.14;100756.69;4981368;28;20128;-66
2023/11/13 03:46:33;;;;;;;22.75;10.50;;;;;;;1.90;60.16;100751.53;5001106;28;20033;-67
2023/11/13 03:48:59;;;;;;;16.52;9.70;;;;;;;1.84;60.39;100746.41;5001825;28;20129;-65
2023/11/13 03:51:25;;;;;;;22.05;11.23;;;;;;;1.82;60.04;100746.44;5002432;28;20033;-71
2023/11/13 03:53:51;;;;;;;23.58;11.43;;;;;;;1.77;60.41;100743.00;4989475;28;20519;-70
2023/11/13 03:56:22;;;;;;;24.20;11.23;;;;;;;1.65;60.11;100740.53;4999883;28;20287;-71
2023/11/13 03:58:47;;;;;;;21.70;10.55;;;;;;;1.60;60.23;100739.69;5002685;28;20030;-70
2023/11/13 04:01:15;;;;;;;17.52;10.52;;;;;;;1.55;60.11;100728.53;4998324;28;20064;-69
2023/11/13 04:03:40;;;;;;;26.25;10.98;;;;;;;1.51;60.33;100727.72;5000616;28;20480;-70
2023/11/13 04:06:06;;;;;;;17.80;9.65;;;;;;;1.48;59.96;100723.44;5000086;28;20232;-70
2023/11/13 04:08:32;;;;;;;24.15;9.82;;;;;;;1.39;59.70;100718.25;4999551;28;20034;-70
2023/11/13 04:10:58;;;;;;;19.02;9.63;;;;;;;1.35;59.45;100721.75;5006391;28;20029;-70
2023/11/13 04:13:24;;;;;;;18.38;10.25;;;;;;;1.29;59.70;100716.63;5002072;28;20103;-70
2023/11/13 04:15:51;;;;;;;18.50;10.13;;;;;;;1.21;60.27;100723.50;5002153;28;20236;-70
2023/11/13 04:18:17;;;;;;;21.83;11.57;;;;;;;1.18;60.60;100718.38;4994973;28;20591;-71
2023/11/13 04:20:42;;;;;;;24.00;11.18;;;;;;;1.20;60.47;100719.22;5002066;28;20045;-71
2023/11/13 04:23:08;;;;;;;22.83;10.65;;;;;;;1.27;60.36;100726.06;4980581;28;20084;-70
2023/11/13 04:25:34;;;;;;;25.17;11.13;;;;;;;1.22;60.31;100720.09;5002620;28;20133;-65
2023/11/13 04:28:00;;;;;;;17.75;10.50;;;;;;;1.18;60.29;100718.38;4997293;28;20128;-65
2023/11/13 04:30:25;;;;;;;20.83;10.85;;;;;;;1.26;60.26;100716.59;4999806;28;20033;-67
2023/11/13 04:32:51;;;;;;;21.13;12.15;;;;;;;1.20;60.44;100707.19;5001687;28;20033;-66
2023/11/13 04:35:18;;;;;;;24.70;11.52;;;;;;;1.19;60.39;100704.63;4994434;28;20681;-67
2023/11/13 04:37:44;;;;;;;22.48;10.40;;;;;;;1.16;60.46;100710.66;5002172;28;20059;-69
2023/11/13 04:40:11;;;;;;;23.00;11.35;;;;;;;1.09;60.05;100711.53;5001276;28;20096;-69
2023/11/13 04:42:38;;;;;;;24.40;12.73;;;;;;;1.04;60.60;100715.84;5000902;28;20033;-70
2023/11/13 04:45:04;;;;;;;20.08;10.88;;;;;;;0.94;60.17;100727.03;4993649;28;20045;-70
2023/11/13 04:47:30;;;;;;;19.70;11.63;;;;;;;0.89;60.39;100727.03;5003957;28;20160;-70
2023/11/13 04:49:58;;;;;;;22.42;10.00;;;;;;;0.83;60.33;100733.03;4996916;28;20402;-70
2023/11/13 04:52:24;;;;;;;22.35;10.95;;;;;;;0.83;60.41;100739.91;4999705;28;20029;-69
2023/11/13 04:54:52;;;;;;;18.20;10.07;;;;;;;0.82;59.88;100741.63;5002909;28;20181;-71
2023/11/13 04:57:18;;;;;;;17.55;10.20;;;;;;;0.75;59.50;100746.75;4995803;28;21352;-70
2023/11/13 04:59:44;;;;;;;18.83;10.30;;;;;;;0.63;59.79;100735.63;5001058;28;20608;-67
2023/11/13 05:02:11;;;;;;;19.98;9.98;;;;;;;0.58;60.00;100737.34;4995498;28;20057;-78
2023/11/13 05:04:36;;;;;;;19.52;9.73;;;;;;;0.55;60.09;100737.38;5014901;28;20492;-75
2023/11/13 05:07:02;;;;;;;19.33;9.48;;;;;;;0.50;59.87;100731.34;5008584;28;20040;-75
2023/11/13 05:09:28;;;;;;;16.88;9.18;;;;;;;0.46;60.18;100727.09;5006579;28;20041;-77
2023/11/13 05:11:53;;;;;;;23.50;10.50;;;;;;;0.47;60.29;100715.94;5008736;28;20037;-77
2023/11/13 05:14:19;;;;;;;22.77;11.15;;;;;;;0.43;60.57;100707.34;5005594;28;20041;-78
2023/11/13 05:16:44;;;;;;;18.60;10.32;;;;;;;0.42;60.50;100700.50;5008327;28;20052;-78
2023/11/13 05:19:10;;;;;;;17.63;9.63;;;;;;;0.49;60.62;100702.22;5006475;28;20044;-79
2023/11/13 05:21:35;;;;;;;20.50;10.70;;;;;;;0.48;60.81;100697.09;5009098;28;20092;-77
2023/11/13 05:24:01;;;;;;;19.58;10.90;;;;;;;0.51;60.79;100698.81;5002181;28;20063;-77
2023/11/13 05:26:28;;;;;;;25.77;11.50;;;;;;;0.57;60.38;100702.22;4992469;28;20037;-76
2023/11/13 05:28:55;;;;;;;23.90;10.73;;;;;;;0.58;60.33;100700.50;4994722;28;20087;-79
2023/11/13 05:31:20;;;;;;;18.90;10.60;;;;;;;0.58;60.40;100691.06;5010219;28;20130;-77
2023/11/13 05:33:46;;;;;;;19.23;9.95;;;;;;;0.58;60.56;100691.06;5011141;28;20118;-84
2023/11/13 05:36:11;;;;;;;21.10;11.13;;;;;;;0.56;60.41;100682.50;4992389;28;20116;-82
2023/11/13 05:38:40;;;;;;;18.95;10.27;;;;;;;0.57;60.52;100684.22;5006772;28;20037;-81
2023/11/13 05:41:06;;;;;;;22.27;10.90;;;;;;;0.59;60.70;100673.91;5001173;28;20115;-72
2023/11/13 05:43:31;;;;;;;19.85;10.90;;;;;;;0.62;60.80;100664.47;5000684;28;20960;-72
2023/11/13 05:45:57;;;;;;;20.27;10.90;;;;;;;0.67;60.65;100649.88;5000844;28;20577;-72
2023/11/13 05:48:22;;;;;;;22.50;11.52;;;;;;;0.64;60.73;100647.34;5000453;28;20053;-73
2023/11/13 05:50:48;;;;;;;24.60;11.85;;;;;;;0.64;60.52;100647.34;5002660;28;20041;-74
2023/11/13 05:53:14;;;;;;;20.58;10.85;;;;;;;0.60;60.33;100643.06;4981389;28;20415;-69
2023/11/13 05:55:40;;;;;;;19.88;10.40;;;;;;;0.61;60.85;100644.78;4999755;28;20408;-69
2023/11/13 05:58:05;;;;;;;23.60;11.32;;;;;;;0.62;60.49;100646.47;4999657;28;20026;-77
2023/11/13 06:00:34;;;;;;;20.08;11.60;;;;;;;0.65;60.76;100659.31;5004002;28;20033;-76
2023/11/13 06:02:59;;;;;;;24.35;11.80;;;;;;;0.66;60.51;100652.47;5001231;28;20069;-66
2023/11/13 06:05:25;;;;;;;22.25;11.75;;;;;;;0.63;60.70;100648.19;4996936;28;20168;-69
2023/11/13 06:07:50;;;;;;;22.55;11.65;;;;;;;0.61;60.54;100644.78;5001208;28;20129;-69
2023/11/13 06:10:16;;;;;;;20.98;11.27;;;;;;;0.59;60.50;100648.19;4998822;28;20121;-69
2023/11/13 06:12:41;;;;;;;22.42;11.57;;;;;;;0.54;60.66;100652.50;5010979;28;20096;-67
2023/11/13 06:15:10;;;;;;;22.10;11.90;;;;;;;0.60;60.76;100637.91;4997053;28;20038;-69
2023/11/13 06:17:38;;;;;;;24.95;13.98;;;;;;;0.59;60.57;100641.34;5001965;28;20077;-67
2023/11/13 06:20:04;;;;;;;24.45;12.77;;;;;;;0.47;60.49;100638.78;5001454;28;20046;-69
2023/11/13 06:22:30;;;;;;;24.15;12.82;;;;;;;0.57;60.51;100632.78;5002714;28;20117;-69
2023/11/13 06:24:56;;;;;;;31.63;12.82;;;;;;;0.46;60.30;100619.94;5000992;28;20078;-70
2023/11/13 06:27:22;;;;;;;23.35;12.15;;;;;;;0.38;61.07;100620.81;4999196;28;20293;-70
2023/11/13 06:29:48;;;;;;;20.13;11.60;;;;;;;0.44;60.94;100621.66;5001476;28;20041;-69
2023/11/13 06:32:13;;;;;;;19.90;10.50;;;;;;;0.46;60.69;100616.53;4998791;28;20111;-70
2023/11/13 06:34:39;;;;;;;29.60;12.27;;;;;;;0.45;60.39;100619.94;5002302;28;20041;-69
2023/11/13 06:37:04;;;;;;;21.92;13.15;;;;;;;0.32;60.69;100618.25;5001116;28;20041;-66
2023/11/13 06:39:31;;;;;;;21.25;11.30;;;;;;;0.28;60.88;100623.41;5004778;28;20042;-71
2023/11/13 06:41:58;;;;;;;24.95;13.20;;;;;;;0.40;60.51;100621.66;5009485;28;20034;-76
2023/11/13 06:44:23;;;;;;;21.20;10.35;;;;;;;0.27;61.03;100613.97;4993371;28;20041;-73
2023/11/13 06:46:49;;;;;;;22.63;12.60;;;;;;;0.39;60.93;100607.09;5003520;28;20089;-75
2023/11/13 06:49:14;;;;;;;23.52;13.27;;;;;;;0.51;61.04;100611.38;4998783;28;20095;-75
2023/11/13 06:51:42;;;;;;;23.05;13.00;;;;;;;0.52;60.72;100610.50;4987849;28;20395;-75
2023/11/13 06:54:08;;;;;;;27.08;13.27;;;;;;;0.50;60.65;100602.78;5000076;28;20057;-74
2023/11/13 06:56:36;;;;;;;36.67;13.13;;;;;;;0.49;60.81;100603.66;4998080;28;20493;-73
2023/11/13 06:59:02;;;;;;;26.50;12.35;;;;;;;0.50;61.07;100592.47;5009608;28;20041;-74
2023/11/13 07:01:27;;;;;;;67.47;12.65;;;;;;;0.44;60.89;100595.94;4998975;28;20515;-74
2023/11/13 07:03:53;;;;;;;115.57;15.57;;;;;;;0.42;61.21;100597.66;5010298;28;20076;-73
2023/11/13 07:06:19;;;;;;;32.28;13.02;;;;;;;0.27;61.64;100588.25;5003099;28;20041;-74
2023/11/13 07:08:45;;;;;;;26.55;13.60;;;;;;;0.34;61.63;100593.38;5001939;28;20515;-73
2023/11/13 07:11:14;;;;;;;30.60;13.70;;;;;;;0.46;61.61;100593.38;4997431;28;20037;-72
2023/11/13 07:13:40;;;;;;;28.83;12.85;;;;;;;0.55;61.21;100600.22;5007357;28;20038;-71
2023/11/13 07:16:10;;;;;;;30.60;13.48;;;;;;;0.57;61.08;100593.31;5007504;28;20509;-67
2023/11/13 07:18:36;;;;;;;33.55;13.38;;;;;;;0.56;61.50;100589.06;5006501;28;20069;-68
2023/11/13 07:21:02;;;;;;;29.90;14.20;;;;;;;0.54;61.20;100594.19;5002682;28;20497;-66
2023/11/13 07:23:29;;;;;;;21.50;11.70;;;;;;;0.72;61.03;100589.84;4979154;28;20041;-69
2023/11/13 07:25:55;;;;;;;26.35;13.43;;;;;;;0.76;60.79;100581.25;5008961;28;20034;-67
2023/11/13 07:28:24;;;;;;;30.60;13.52;;;;;;;0.79;60.62;100583.81;4990245;28;20041;-71
2023/11/13 07:30:49;;;;;;;31.02;14.70;;;;;;;0.83;60.94;100580.38;5000888;28;20018;-68
2023/11/13 07:33:15;;;;;;;26.92;15.02;;;;;;;0.87;60.68;100566.63;4985694;28;20046;-69
2023/11/13 07:35:40;;;;;;;30.10;13.60;;;;;;;0.81;61.13;100572.66;5001634;28;20034;-70
2023/11/13 07:38:07;;;;;;;25.63;13.63;;;;;;;0.83;61.46;100576.06;5001010;28;20488;-70
2023/11/13 07:40:33;;;;;;;24.77;14.88;;;;;;;0.84;61.12;100557.22;4997429;28;20583;-68
2023/11/13 07:42:59;;;;;;;30.02;15.15;;;;;;;0.59;61.75;100553.03;5007600;28;20042;-70
2023/11/13 07:45:25;;;;;;;25.65;12.63;;;;;;;0.85;61.42;100550.34;5009592;28;20041;-72
2023/11/13 07:47:51;;;;;;;26.48;13.25;;;;;;;0.94;60.76;100550.28;5002725;28;20721;-70
2023/11/13 07:50:17;;;;;;;21.95;11.10;;;;;;;1.06;60.64;100539.94;5001940;28;20049;-73
2023/11/13 07:52:44;;;;;;;28.52;13.38;;;;;;;1.10;60.43;100541.66;5001043;28;20055;-70
2023/11/13 07:55:10;;;;;;;25.10;12.68;;;;;;;1.03;60.59;100539.09;5006239;28;20626;-71
2023/11/13 07:57:39;;;;;;;23.33;11.70;;;;;;;0.97;60.77;100533.97;5005287;28;20044;-68
2023/11/13 08:00:15;;;;;;;24.25;12.40;;;;;;;1.07;60.95;100518.47;5001161;28;20041;-66
2023/11/13 08:02:42;;;;;;;24.77;12.80;;;;;;;0.99;60.88;100517.69;5009439;28;20120;-68
2023/11/13 08:05:14;;;;;;;25.45;10.90;;;;;;;1.00;60.75;100514.25;4999286;28;20049;-72
2023/11/13 08:07:43;;;;;;;19.58;9.93;;;;;;;1.17;60.47;100495.25;5000050;28;20033;-67
2023/11/13 08:10:13;;;;;;;28.67;12.88;;;;;;;1.14;60.97;100509.00;5000467;28;20050;-66
2023/11/13 08:12:44;;;;;;;26.45;11.40;;;;;;;1.27;60.43;100507.19;5007523;28;20037;-68
2023/11/13 08:15:12;;;;;;;22.30;11.43;;;;;;;1.36;60.25;100507.13;5001215;28;20054;-68
2023/11/13 08:17:39;;;;;;;19.17;10.95;;;;;;;1.44;60.37;100501.94;4999989;28;20026;-69
2023/11/13 08:20:08;;;;;;;20.25;11.05;;;;;;;1.45;60.64;100501.09;5000782;28;20037;-68
2023/11/13 08:22:35;;;;;;;26.60;11.27;;;;;;;1.48;60.50;100495.91;4993045;28;20613;-69
2023/11/13 08:25:04;;;;;;;21.13;10.60;;;;;;;1.24;61.23;100491.78;4999600;28;20029;-69
2023/11/13 08:27:30;;;;;;;17.05;9.63;;;;;;;1.55;60.42;100496.69;4993516;28;20041;-69
2023/11/13 08:29:58;;;;;;;15.20;8.82;;;;;;;1.59;60.59;100485.50;4998898;28;20500;-69
2023/11/13 08:32:24;;;;;;;22.70;9.18;;;;;;;1.77;59.85;100480.19;4992716;28;20037;-68
2023/11/13 08:34:49;;;;;;;17.90;9.38;;;;;;;1.78;59.96;100479.31;4998954;28;20108;-69
2023/11/13 08:37:15;;;;;;;18.73;9.60;;;;;;;1.75;59.84;100492.22;4984072;28;20095;-69
2023/11/13 08:39:40;;;;;;;16.52;8.82;;;;;;;1.72;59.90;100479.38;5006271;28;20045;-70
2023/11/13 08:42:10;;;;;;;17.52;8.38;;;;;;;1.79;59.71;100475.88;4998062;28;20044;-70
2023/11/13 08:44:36;;;;;;;14.77;8.77;;;;;;;1.91;60.00;100469.75;4986414;28;21411;-69
2023/11/13 08:47:03;;;;;;;22.38;9.55;;;;;;;2.01;59.66;100455.88;5001893;28;20029;-68
2023/11/13 08:49:29;;;;;;;13.75;8.68;;;;;;;2.10;59.02;100457.50;4984243;28;20065;-69
2023/11/13 08:51:58;;;;;;;22.48;8.75;;;;;;;2.05;59.37;100441.25;5001465;28;20091;-70
2023/11/13 08:54:24;;;;;;;12.95;8.07;;;;;;;2.01;59.25;100448.16;5002210;28;20181;-69
2023/11/13 08:56:52;;;;;;;13.18;8.35;;;;;;;2.12;59.48;100445.44;5004426;28;20719;-69
2023/11/13 08:59:18;;;;;;;13.13;7.90;;;;;;;2.21;58.84;100441.91;4978884;28;20706;-68
2023/11/13 09:01:43;;;;;;;13.50;9.07;;;;;;;2.27;58.77;100434.94;5000246;28;20034;-68
2023/11/13 09:04:09;;;;;;;14.70;8.57;;;;;;;2.35;58.90;100427.97;5011859;28;20038;-67
2023/11/13 09:06:36;;;;;;;16.88;8.13;;;;;;;2.47;58.41;100428.69;4993452;28;22207;-68
2023/11/13 09:09:03;;;;;;;16.38;8.73;;;;;;;2.31;58.36;100433.16;5003469;28;20033;-70
2023/11/13 09:11:29;;;;;;;13.98;7.72;;;;;;;2.11;58.54;100410.25;4995132;28;20029;-68
2023/11/13 09:13:55;;;;;;;20.70;7.35;;;;;;;2.37;58.00;100411.63;4997626;28;20177;-68
2023/11/13 09:16:21;;;;;;;10.95;6.22;;;;;;;2.47;57.86;100413.22;4995619;28;20018;-69
2023/11/13 09:18:54;;;;;;;13.30;6.22;;;;;;;2.54;57.80;100414.81;4995745;28;20056;-69
2023/11/13 09:21:20;;;;;;;14.73;7.75;;;;;;;2.70;57.76;100405.97;4996382;28;20037;-69
2023/11/13 09:23:46;;;;;;;15.82;6.80;;;;;;;2.91;57.35;100414.28;4998166;28;20534;-69
2023/11/13 09:26:12;;;;;;;10.23;6.97;;;;;;;2.65;57.18;100407.78;5004706;28;20108;-69
2023/11/13 09:28:38;;;;;;;11.63;6.55;;;;;;;3.06;57.01;100398.53;4976819;28;20053;-69
2023/11/13 09:31:09;;;;;;;9.10;5.80;;;;;;;3.17;56.72;100396.63;5002577;28;20113;-68
2023/11/13 09:33:35;;;;;;;15.05;8.05;;;;;;;3.02;55.89;100394.28;4995280;28;20056;-67
2023/11/13 09:36:00;;;;;;;10.05;5.72;;;;;;;2.97;56.45;100411.59;4999035;28;20033;-69
2023/11/13 09:38:26;;;;;;;13.30;6.65;;;;;;;2.87;57.16;100402.31;4992777;28;20088;-69
2023/11/13 09:40:54;;;;;;;10.15;5.72;;;;;;;3.03;56.10;100397.75;5003605;28;20057;-69
2023/11/13 09:43:34;;;;;;;8.68;5.47;;;;;;;2.83;56.22;100380.00;5002568;28;20128;-69
2023/11/13 09:46:09;;;;;;;9.30;4.95;;;;;;;2.96;56.63;100358.28;5001821;28;20029;-69
2023/11/13 09:48:43;;;;;;;9.52;5.03;;;;;;;3.18;56.13;100357.03;4995153;28;20046;-68
2023/11/13 09:51:13;;;;;;;9.57;5.47;;;;;;;3.19;56.08;100369.03;5010327;28;20033;-69
2023/11/13 09:53:42;;;;;;;13.55;6.25;;;;;;;3.40;56.47;100377.31;4991793;28;20862;-69
2023/11/13 09:56:11;;;;;;;8.20;5.45;;;;;;;3.17;55.65;100383.72;5010954;28;20034;-69
2023/11/13 09:58:38;;;;;;;8.50;5.05;;;;;;;3.08;56.23;100381.28;4994208;28;20040;-69
2023/11/13 10:01:06;;;;;;;11.55;5.32;;;;;;;3.53;55.80;100383.13;5001483;28;20053;-69
2023/11/13 10:03:31;;;;;;;11.60;5.28;;;;;;;3.48;55.40;100372.88;4996292;28;20503;-69
2023/11/13 10:06:00;;;;;;;9.40;5.07;;;;;;;3.52;55.51;100365.94;5002781;28;20065;-68
2023/11/13 10:08:31;;;;;;;7.45;4.72;;;;;;;3.47;55.51;100360.84;4997853;28;20129;-69
2023/11/13 10:10:57;;;;;;;7.30;4.57;;;;;;;3.48;55.34;100359.13;5002903;28;20125;-69
2023/11/13 10:13:23;;;;;;;5.93;4.00;;;;;;;3.68;55.89;100358.72;4998927;28;20068;-69
2023/11/13 10:15:49;;;;;;;8.48;4.43;;;;;;;3.45;55.93;100349.69;5005576;28;20035;-70
2023/11/13 10:18:15;;;;;;;7.25;4.45;;;;;;;3.58;56.16;100345.13;5000233;28;20034;-70
2023/11/13 10:20:43;;;;;;;10.38;4.50;;;;;;;3.50;56.00;100336.69;5009844;28;20052;-68
2023/11/13 10:23:09;;;;;;;8.73;4.22;;;;;;;3.54;55.53;100323.66;5002062;28;20132;-69
2023/11/13 10:25:45;;;;;;;8.77;4.72;;;;;;;3.83;55.28;100324.81;4998250;28;20108;-69
2023/11/13 10:28:12;;;;;;;7.53;3.78;;;;;;;3.67;55.36;100303.63;5006491;28;20420;-68
2023/11/13 10:31:12;;;;;;;7.60;4.65;;;;;;;3.59;55.50;100300.31;5003230;28;20061;-69
2023/11/13 10:33:40;;;;;;;5.97;4.00;;;;;;;3.59;55.93;100285.66;4983470;28;20047;-69
2023/11/13 10:36:17;;;;;;;7.90;4.68;;;;;;;3.57;56.15;100279.66;5007019;28;20046;-67
2023/11/13 10:38:47;;;;;;;6.07;4.40;;;;;;;3.57;55.61;100263.31;5001556;28;20048;-64
2023/11/13 10:41:19;;;;;;;8.13;4.50;;;;;;;3.24;56.20;100257.06;5008726;28;20196;-67
2023/11/13 10:43:45;;;;;;;6.70;4.32;;;;;;;3.41;56.48;100247.28;5001884;28;21229;-65
2023/11/13 10:46:12;;;;;;;7.30;3.47;;;;;;;3.47;56.44;100234.25;5001350;28;20037;-70
2023/11/13 10:48:45;;;;;;;6.20;3.58;;;;;;;3.33;56.69;100215.59;4993931;28;20451;-70
2023/11/13 10:51:14;;;;;;;7.70;4.00;;;;;;;3.33;56.87;100207.84;4998580;28;20041;-67
2023/11/13 10:53:42;;;;;;;6.20;4.03;;;;;;;3.33;56.86;100185.44;4995238;28;20042;-69
2023/11/13 10:56:09;;;;;;;8.20;3.55;;;;;;;3.28;57.04;100187.22;4997750;28;20430;-68
2023/11/13 10:58:35;;;;;;;4.68;3.35;;;;;;;3.27;57.00;100176.94;4993932;28;20052;-70
2023/11/13 11:01:16;;;;;;;5.60;3.58;;;;;;;3.23;56.81;100167.56;4999775;28;20025;-67
2023/11/13 11:03:45;;;;;;;8.98;4.40;;;;;;;3.11;57.11;100143.69;4997750;28;20034;-66
2023/11/13 11:06:19;;;;;;;6.15;4.18;;;;;;;3.06;57.43;100140.34;5014145;28;20060;-68
2023/11/13 11:08:45;;;;;;;4.65;3.38;;;;;;;2.98;57.53;100137.09;4995777;28;20060;-66
2023/11/13 11:11:12;;;;;;;9.55;4.57;;;;;;;3.08;57.64;100128.25;5001348;28;20191;-67
2023/11/13 11:13:49;;;;;;;6.72;4.40;;;;;;;3.04;57.48;100131.78;4995356;28;20503;-65
2023/11/13 11:16:30;;;;;;;5.10;3.60;;;;;;;3.12;57.57;100121.31;5014198;28;20055;-67
2023/11/13 11:19:06;;;;;;;4.97;3.33;;;;;;;2.69;59.25;100111.81;5000556;28;20037;-69
2023/11/13 11:21:50;;;;;;;6.78;3.80;;;;;;;2.47;59.57;100099.34;4993622;28;20048;-67